createdAt,value
2022-08-23T00:01:14.597Z,11.65
2022-08-23T00:03:17.624Z,10.70
2022-08-23T00:05:20.525Z,11.70
2022-08-23T00:07:23.816Z,12.75
2022-08-23T00:09:29.198Z,11.40
2022-08-23T00:11:49.098Z,11.60
2022-08-23T00:13:51.957Z,11.10
2022-08-23T00:15:54.880Z,11.50
2022-08-23T00:17:58.031Z,11.65
2022-08-23T00:20:00.691Z,11.93
2022-08-23T00:22:03.493Z,11.07
2022-08-23T00:24:12.277Z,11.27
2022-08-23T00:26:16.232Z,11.80
2022-08-23T00:28:19.725Z,11.77
2022-08-23T00:30:22.458Z,11.45
2022-08-23T00:32:29.320Z,11.73
2022-08-23T00:34:32.144Z,11.73
2022-08-23T00:36:34.891Z,11.13
2022-08-23T00:38:38.063Z,11.45
2022-08-23T00:40:43.165Z,10.90
2022-08-23T00:43:13.064Z,11.10
2022-08-23T00:45:38.972Z,9.88
2022-08-23T00:47:42.955Z,10.60
2022-08-23T00:50:23.434Z,9.13
2022-08-23T00:52:38.769Z,11.23
2022-08-23T00:54:43.837Z,10.45
2022-08-23T00:56:46.596Z,10.32
2022-08-23T00:58:50.111Z,10.18
2022-08-23T01:00:55.470Z,10.10
2022-08-23T01:02:58.513Z,10.05
2022-08-23T01:05:02.178Z,9.50
2022-08-23T01:07:16.540Z,10.02
2022-08-23T01:09:21.582Z,9.48
2022-08-23T01:11:35.676Z,9.77
2022-08-23T01:13:58.673Z,9.63
2022-08-23T01:16:10.578Z,9.43
2022-08-23T01:18:17.322Z,8.98
2022-08-23T01:20:26.796Z,9.60
2022-08-23T01:22:45.228Z,10.80
2022-08-23T01:25:05.735Z,9.07
2022-08-23T01:27:13.703Z,9.93
2022-08-23T01:29:17.518Z,9.80
2022-08-23T01:31:22.894Z,8.80
2022-08-23T01:33:25.669Z,9.77
2022-08-23T01:35:38.303Z,9.27
2022-08-23T01:37:42.469Z,8.98
2022-08-23T01:39:45.607Z,10.07
2022-08-23T01:41:48.319Z,10.02
2022-08-23T01:43:52.021Z,10.43
2022-08-23T01:45:54.942Z,9.60
2022-08-23T01:47:58.169Z,10.13
2022-08-23T01:50:00.794Z,9.60
2022-08-23T01:52:04.092Z,9.95
2022-08-23T01:54:06.697Z,10.30
2022-08-23T01:56:09.727Z,9.82
2022-08-23T01:58:12.602Z,9.43
2022-08-23T02:00:15.634Z,10.00
2022-08-23T02:02:18.263Z,9.30
2022-08-23T02:04:22.548Z,9.05
2022-08-23T02:06:25.213Z,9.52
2022-08-23T02:08:46.877Z,9.55
2022-08-23T02:10:49.655Z,9.30
2022-08-23T02:12:52.327Z,8.27
2022-08-23T02:15:16.174Z,9.32
2022-08-23T02:17:18.804Z,9.30
2022-08-23T02:19:22.153Z,9.20
2022-08-23T02:21:26.412Z,9.65
2022-08-23T02:23:29.380Z,10.55
2022-08-23T02:25:32.054Z,9.60
2022-08-23T02:27:35.420Z,9.15
2022-08-23T02:29:39.352Z,9.95
2022-08-23T02:31:44.391Z,10.43
2022-08-23T02:33:46.959Z,8.68
2022-08-23T02:35:50.206Z,8.90
2022-08-23T02:37:56.053Z,9.25
2022-08-23T02:39:58.671Z,9.43
2022-08-23T02:42:01.598Z,9.52
2022-08-23T02:44:06.001Z,11.00
2022-08-23T02:46:08.578Z,9.02
2022-08-23T02:48:11.329Z,9.32
2022-08-23T02:50:14.227Z,8.75
2022-08-23T02:52:16.861Z,9.82
2022-08-23T02:54:19.430Z,9.55
2022-08-23T02:56:22.214Z,9.70
2022-08-23T02:58:25.607Z,9.10
2022-08-23T03:00:28.932Z,8.82
2022-08-23T03:02:32.060Z,10.15
2022-08-23T03:04:35.916Z,9.57
2022-08-23T03:06:39.341Z,9.35
2022-08-23T03:08:42.577Z,9.25
2022-08-23T03:10:47.564Z,9.07
2022-08-23T03:12:50.859Z,9.38
2022-08-23T03:14:53.516Z,9.48
2022-08-23T03:16:58.338Z,9.68
2022-08-23T03:19:02.565Z,9.00
2022-08-23T03:21:06.595Z,9.40
2022-08-23T03:23:11.174Z,9.00
2022-08-23T03:25:13.772Z,9.60
2022-08-23T03:27:18.284Z,9.50
2022-08-23T03:29:20.970Z,8.68
2022-08-23T03:31:23.609Z,9.63
2022-08-23T03:33:26.291Z,8.88
2022-08-23T03:35:29.620Z,9.45
2022-08-23T03:37:32.390Z,10.30
2022-08-23T03:39:34.994Z,9.23
2022-08-23T03:41:37.574Z,9.75
2022-08-23T03:43:40.431Z,9.15
2022-08-23T03:45:43.209Z,9.77
2022-08-23T03:47:46.099Z,10.32
2022-08-23T03:49:48.781Z,8.20
2022-08-23T03:51:51.318Z,9.45
2022-08-23T03:53:53.991Z,8.95
2022-08-23T03:55:56.720Z,9.50
2022-08-23T03:58:00.101Z,8.57
2022-08-23T04:00:03.185Z,8.98
2022-08-23T04:02:07.950Z,9.07
2022-08-23T04:04:10.988Z,9.27
2022-08-23T04:06:13.638Z,8.27
2022-08-23T04:08:23.256Z,9.43
2022-08-23T04:10:36.012Z,8.82
2022-08-23T04:12:38.536Z,8.88
2022-08-23T04:14:41.147Z,9.02
2022-08-23T04:16:44.629Z,7.88
2022-08-23T04:18:47.251Z,8.20
2022-08-23T04:20:50.776Z,8.02
2022-08-23T04:22:54.772Z,8.05
2022-08-23T04:24:57.386Z,8.00
2022-08-23T04:26:59.964Z,8.15
2022-08-23T04:29:03.118Z,8.07
2022-08-23T04:31:06.156Z,8.82
2022-08-23T04:33:09.935Z,9.40
2022-08-23T04:35:14.075Z,8.48
2022-08-23T04:37:16.683Z,8.90
2022-08-23T04:39:19.565Z,8.02
2022-08-23T04:41:40.732Z,7.78
2022-08-23T04:43:44.258Z,8.32
2022-08-23T04:45:47.337Z,8.02
2022-08-23T04:47:49.941Z,8.27
2022-08-23T04:49:52.502Z,8.57
2022-08-23T04:51:55.754Z,7.97
2022-08-23T04:53:58.477Z,7.63
2022-08-23T04:56:02.450Z,7.63
2022-08-23T04:58:08.264Z,8.50
2022-08-23T05:00:13.697Z,8.07
2022-08-23T05:02:16.262Z,7.47
2022-08-23T05:04:19.145Z,7.38
2022-08-23T05:06:22.307Z,7.75
2022-08-23T05:08:26.168Z,8.57
2022-08-23T05:10:28.979Z,7.50
2022-08-23T05:12:31.564Z,8.48
2022-08-23T05:14:34.075Z,8.80
2022-08-23T05:16:36.684Z,8.90
2022-08-23T05:18:39.303Z,7.63
2022-08-23T05:20:41.867Z,7.85
2022-08-23T05:22:44.856Z,8.15
2022-08-23T05:24:47.394Z,8.18
2022-08-23T05:26:50.022Z,8.23
2022-08-23T05:28:54.509Z,8.60
2022-08-23T05:31:15.986Z,8.50
2022-08-23T05:33:19.533Z,7.32
2022-08-23T05:35:22.077Z,7.50
2022-08-23T05:37:24.710Z,8.73
2022-08-23T05:39:36.691Z,8.18
2022-08-23T05:41:40.462Z,6.63
2022-08-23T05:43:43.838Z,6.47
2022-08-23T05:45:47.201Z,6.53
2022-08-23T05:47:49.881Z,6.50
2022-08-23T05:49:53.104Z,7.45
2022-08-23T05:51:56.919Z,7.18
2022-08-23T05:54:04.161Z,6.60
2022-08-23T05:56:41.686Z,7.30
2022-08-23T05:58:45.358Z,6.93
2022-08-23T06:00:47.957Z,7.32
2022-08-23T06:02:50.637Z,8.02
2022-08-23T06:04:57.143Z,7.63
2022-08-23T06:07:00.074Z,7.03
2022-08-23T06:09:05.696Z,7.88
2022-08-23T06:11:14.870Z,7.50
2022-08-23T06:13:17.417Z,7.07
2022-08-23T06:15:20.014Z,7.07
2022-08-23T06:17:22.608Z,7.07
2022-08-23T06:19:25.189Z,7.45
2022-08-23T06:21:28.067Z,7.88
2022-08-23T06:23:30.946Z,7.32
2022-08-23T06:25:37.727Z,7.30
2022-08-23T06:27:40.254Z,7.07
2022-08-23T06:29:43.148Z,6.47
2022-08-23T06:31:50.273Z,6.72
2022-08-23T06:33:53.519Z,5.78
2022-08-23T06:36:06.342Z,6.32
2022-08-23T06:38:08.976Z,7.53
2022-08-23T06:40:11.614Z,6.90
2022-08-23T06:42:37.997Z,6.07
2022-08-23T06:44:39.107Z,6.90
2022-08-23T06:46:43.512Z,6.20
2022-08-23T06:48:47.635Z,7.32
2022-08-23T06:50:50.459Z,7.25
2022-08-23T06:52:56.246Z,7.18
2022-08-23T06:54:59.425Z,7.03
2022-08-23T06:57:03.473Z,6.95
2022-08-23T06:59:07.569Z,7.32
2022-08-23T07:01:43.987Z,6.45
2022-08-23T07:03:42.037Z,6.70
2022-08-23T07:05:44.774Z,6.80
2022-08-23T07:07:47.610Z,7.25
2022-08-23T07:09:50.320Z,6.80
2022-08-23T07:11:53.202Z,7.35
2022-08-23T07:13:56.210Z,6.53
2022-08-23T07:16:00.554Z,6.07
2022-08-23T07:18:03.834Z,5.70
2022-08-23T07:20:07.092Z,5.80
2022-08-23T07:22:11.190Z,5.70
2022-08-23T07:24:14.174Z,5.68
2022-08-23T07:26:18.194Z,6.70
2022-08-23T07:28:21.223Z,5.75
2022-08-23T07:30:23.974Z,6.10
2022-08-23T07:32:26.817Z,5.05
2022-08-23T07:34:29.591Z,5.68
2022-08-23T07:36:33.845Z,5.45
2022-08-23T07:38:37.215Z,5.38
2022-08-23T07:40:40.853Z,5.53
2022-08-23T07:42:43.612Z,5.90
2022-08-23T07:44:46.304Z,5.60
2022-08-23T07:46:49.518Z,5.72
2022-08-23T07:48:54.678Z,5.82
2022-08-23T07:51:02.090Z,5.50
2022-08-23T07:53:04.979Z,5.47
2022-08-23T07:55:10.625Z,4.97
2022-08-23T07:57:14.294Z,5.32
2022-08-23T07:59:17.030Z,5.70
2022-08-23T08:01:23.835Z,6.13
2022-08-23T08:03:26.582Z,4.88
2022-08-23T08:05:32.790Z,6.60
2022-08-23T08:07:37.765Z,5.65
2022-08-23T08:09:41.162Z,6.55
2022-08-23T08:11:47.529Z,5.32
2022-08-23T08:13:51.839Z,5.50
2022-08-23T08:15:55.346Z,5.53
2022-08-23T08:17:58.700Z,5.05
2022-08-23T08:20:01.526Z,4.78
2022-08-23T08:22:05.724Z,5.30
2022-08-23T08:24:10.793Z,5.90
2022-08-23T08:26:14.424Z,5.75
2022-08-23T08:28:17.364Z,5.90
2022-08-23T08:30:20.199Z,5.75
2022-08-23T08:32:22.864Z,6.20
2022-08-23T08:34:25.977Z,6.07
2022-08-23T08:36:44.404Z,6.07
2022-08-23T08:38:48.469Z,6.13
2022-08-23T08:41:06.948Z,6.50
2022-08-23T08:43:37.587Z,6.07
2022-08-23T08:46:17.309Z,6.53
2022-08-23T08:48:24.131Z,6.05
2022-08-23T08:50:34.257Z,6.50
2022-08-23T08:52:44.526Z,6.70
2022-08-23T08:54:50.171Z,7.85
2022-08-23T08:57:01.376Z,7.00
2022-08-23T08:59:13.387Z,7.45
2022-08-23T09:01:17.767Z,6.75
2022-08-23T09:03:22.898Z,7.03
2022-08-23T09:05:31.882Z,6.72
2022-08-23T09:07:47.561Z,7.18
2022-08-23T09:10:15.536Z,7.13
2022-08-23T09:12:28.996Z,6.80
2022-08-23T09:15:01.238Z,6.30
2022-08-23T09:17:21.340Z,6.65
2022-08-23T09:19:25.670Z,7.57
2022-08-23T09:21:30.838Z,7.20
2022-08-23T09:23:42.537Z,7.28
2022-08-23T09:25:54.137Z,6.25
2022-08-23T09:27:57.031Z,6.20
2022-08-23T09:30:01.512Z,6.47
2022-08-23T09:32:07.818Z,6.28
2022-08-23T09:34:37.445Z,6.57
2022-08-23T09:36:40.262Z,6.65
2022-08-23T09:38:54.874Z,6.00
2022-08-23T09:40:58.793Z,6.40
2022-08-23T09:43:13.543Z,6.53
2022-08-23T09:45:35.860Z,6.05
2022-08-23T09:47:44.524Z,5.95
2022-08-23T09:49:48.724Z,5.93
2022-08-23T09:51:54.323Z,6.70
2022-08-23T09:54:10.911Z,6.38
2022-08-23T09:56:19.976Z,6.20
2022-08-23T09:58:47.399Z,6.70
2022-08-23T10:01:08.405Z,6.90
2022-08-23T10:03:27.626Z,6.00
2022-08-23T10:05:38.085Z,5.80
2022-08-23T10:07:53.149Z,5.50
2022-08-23T10:10:16.325Z,5.40
2022-08-23T10:12:18.962Z,6.18
2022-08-23T10:14:25.931Z,6.75
2022-08-23T10:16:58.555Z,5.38
2022-08-23T10:19:10.848Z,5.95
2022-08-23T10:21:54.652Z,6.18
2022-08-23T10:24:28.501Z,4.78
2022-08-23T10:26:33.302Z,5.35
2022-08-23T10:29:37.545Z,5.22
2022-08-23T10:32:05.355Z,4.40
2022-08-23T10:34:17.138Z,5.40
2022-08-23T10:36:28.955Z,5.35
2022-08-23T10:38:40.749Z,5.90
2022-08-23T10:40:55.006Z,5.50
2022-08-23T10:43:39.866Z,5.28
2022-08-23T10:45:46.920Z,5.50
2022-08-23T10:48:01.833Z,5.13
2022-08-23T10:50:09.345Z,4.90
2022-08-23T10:52:22.054Z,5.15
2022-08-23T10:54:46.367Z,5.22
2022-08-23T10:56:51.149Z,4.55
2022-08-23T10:59:02.773Z,4.68
2022-08-23T11:01:07.791Z,4.30
2022-08-23T11:03:30.324Z,4.90
2022-08-23T11:05:36.148Z,4.32
2022-08-23T11:07:43.557Z,5.28
2022-08-23T11:10:16.773Z,4.93
2022-08-23T11:12:27.499Z,4.20
2022-08-23T11:14:42.079Z,4.70
2022-08-23T11:16:46.968Z,4.88
2022-08-23T11:18:51.440Z,5.00
2022-08-23T11:20:58.712Z,4.65
2022-08-23T11:23:01.549Z,5.15
2022-08-23T11:25:26.826Z,4.70
2022-08-23T11:27:30.901Z,4.93
2022-08-23T11:29:36.069Z,5.03
2022-08-23T11:31:47.816Z,4.72
2022-08-23T11:34:09.262Z,4.65
2022-08-23T11:36:23.409Z,5.25
2022-08-23T11:38:43.968Z,4.40
2022-08-23T11:40:52.836Z,3.80
2022-08-23T11:43:06.464Z,5.00
2022-08-23T11:45:38.125Z,4.60
2022-08-23T11:47:44.532Z,4.55
2022-08-23T11:50:07.148Z,5.07
2022-08-23T11:52:12.790Z,4.75
2022-08-23T11:54:24.291Z,4.35
2022-08-23T11:56:51.482Z,4.63
2022-08-23T11:59:20.442Z,4.47
2022-08-23T12:01:34.213Z,4.72
2022-08-23T12:03:55.877Z,4.93
2022-08-23T12:06:12.636Z,4.53
2022-08-23T12:08:23.128Z,5.03
2022-08-23T12:10:46.582Z,4.55
2022-08-23T12:13:21.246Z,4.40
2022-08-23T12:16:03.296Z,5.20
2022-08-23T12:18:13.851Z,4.43
2022-08-23T12:20:28.636Z,4.10
2022-08-23T12:22:57.198Z,3.85
2022-08-23T12:25:04.772Z,4.35
2022-08-23T12:27:26.396Z,4.82
2022-08-23T12:37:45.842Z,5.38
2022-08-23T12:44:55.726Z,4.60
2022-08-23T12:47:12.942Z,5.18
2022-08-23T12:49:32.210Z,5.15
2022-08-23T12:51:53.460Z,4.90
2022-08-23T12:53:56.961Z,4.00
2022-08-23T12:56:32.116Z,4.03
2022-08-23T12:58:39.686Z,4.82
2022-08-23T13:00:53.214Z,4.63
2022-08-23T13:03:01.637Z,3.90
2022-08-23T13:05:30.381Z,4.78
2022-08-23T13:07:33.546Z,4.85
2022-08-23T13:09:39.945Z,4.00
2022-08-23T13:11:44.231Z,4.32
2022-08-23T13:13:47.681Z,4.45
2022-08-23T13:15:58.579Z,4.75
2022-08-23T13:18:02.198Z,4.25
2022-08-23T13:20:08.161Z,5.10
2022-08-23T13:22:22.691Z,4.53
2022-08-23T13:24:38.319Z,4.65
2022-08-23T13:26:44.162Z,4.35
2022-08-23T13:29:02.413Z,4.15
2022-08-23T13:31:10.553Z,4.65
2022-08-23T13:33:13.230Z,3.60
2022-08-23T13:35:38.282Z,4.20
2022-08-23T13:37:46.919Z,4.78
2022-08-23T13:39:54.436Z,4.22
2022-08-23T13:41:57.458Z,4.32
2022-08-23T13:44:07.137Z,5.28
2022-08-23T13:46:26.533Z,5.13
2022-08-23T13:48:33.072Z,4.38
2022-08-23T13:50:37.478Z,5.07
2022-08-23T13:53:03.080Z,5.20
2022-08-23T13:55:03.100Z,5.22
2022-08-23T13:57:14.279Z,5.32
2022-08-23T13:59:31.254Z,4.60
2022-08-23T14:01:40.015Z,4.93
2022-08-23T14:03:44.133Z,4.85
2022-08-23T14:05:46.875Z,5.47
2022-08-23T14:07:53.054Z,5.30
2022-08-23T14:09:57.463Z,4.63
2022-08-23T14:12:09.675Z,4.38
2022-08-23T14:16:39.836Z,5.05
2022-08-23T14:21:06.377Z,4.70
2022-08-23T14:23:12.084Z,4.78
2022-08-23T14:25:15.868Z,5.25
2022-08-23T14:27:18.611Z,5.07
2022-08-23T14:29:22.837Z,4.82
2022-08-23T14:31:25.875Z,5.30
2022-08-23T14:33:28.640Z,5.60
2022-08-23T14:35:31.860Z,4.65
2022-08-23T14:39:59.786Z,4.97
2022-08-23T14:42:03.727Z,4.57
2022-08-23T14:44:06.774Z,4.03
2022-08-23T14:46:09.650Z,4.35
2022-08-23T14:48:12.696Z,5.22
2022-08-23T14:50:15.610Z,5.43
2022-08-23T14:52:18.315Z,5.32
2022-08-23T14:54:24.268Z,4.57
2022-08-23T14:56:27.181Z,5.20
2022-08-23T14:58:29.715Z,4.90
2022-08-23T15:00:35.638Z,5.22
2022-08-23T15:02:38.443Z,6.15
2022-08-23T15:04:42.326Z,4.65
2022-08-23T15:07:06.816Z,5.28
2022-08-23T15:09:07.853Z,5.35
2022-08-23T15:13:41.590Z,5.60
2022-08-23T15:15:58.954Z,6.07
2022-08-23T15:18:07.001Z,5.20
2022-08-23T15:20:10.149Z,5.40
2022-08-23T15:22:21.392Z,5.40
2022-08-23T15:24:24.694Z,5.40
2022-08-23T15:26:30.806Z,5.38
2022-08-23T15:28:33.361Z,5.30
2022-08-23T15:30:36.790Z,5.20
2022-08-23T15:32:39.678Z,5.38
2022-08-23T15:34:54.925Z,5.55
2022-08-23T15:36:57.563Z,5.63
2022-08-23T15:39:00.469Z,6.22
2022-08-23T15:41:03.604Z,5.43
2022-08-23T15:43:06.230Z,6.25
2022-08-23T15:45:09.262Z,5.53
2022-08-23T15:47:41.616Z,5.40
2022-08-23T15:49:44.634Z,5.82
2022-08-23T15:51:47.347Z,5.90
2022-08-23T15:53:49.909Z,5.75
2022-08-23T15:55:53.672Z,5.03
2022-08-23T15:57:58.621Z,5.65
2022-08-23T16:00:01.234Z,6.38
2022-08-23T16:02:05.175Z,5.82
2022-08-23T16:04:09.177Z,5.03
2022-08-23T16:06:13.755Z,5.15
2022-08-23T16:08:22.352Z,5.85
2022-08-23T16:10:25.352Z,5.10
2022-08-23T16:12:31.766Z,5.20
2022-08-23T16:14:35.287Z,5.53
2022-08-23T16:16:40.668Z,5.63
2022-08-23T16:18:43.693Z,5.68
2022-08-23T16:20:46.466Z,5.65
2022-08-23T16:22:48.991Z,5.93
2022-08-23T16:24:51.655Z,5.90
2022-08-23T16:26:55.491Z,6.22
2022-08-23T16:28:59.682Z,6.47
2022-08-23T16:31:03.378Z,6.32
2022-08-23T16:33:06.114Z,6.28
2022-08-23T16:35:09.640Z,5.75
2022-08-23T16:37:12.197Z,6.85
2022-08-23T16:39:16.264Z,6.68
2022-08-23T16:41:19.509Z,5.63
2022-08-23T16:43:22.301Z,5.45
2022-08-23T16:45:25.831Z,6.03
2022-08-23T16:47:33.849Z,5.75
2022-08-23T16:49:36.416Z,5.50
2022-08-23T16:51:39.091Z,5.30
2022-08-23T16:53:42.143Z,5.22
2022-08-23T16:55:47.097Z,6.38
2022-08-23T16:57:49.709Z,6.07
2022-08-23T16:59:52.979Z,5.22
2022-08-23T17:02:04.525Z,6.10
2022-08-23T17:04:14.177Z,7.88
2022-08-23T17:06:17.395Z,6.28
2022-08-23T17:08:19.985Z,8.05
2022-08-23T17:10:23.010Z,5.82
2022-08-23T17:12:26.156Z,7.55
2022-08-23T17:14:28.799Z,7.55
2022-08-23T17:16:31.651Z,5.90
2022-08-23T17:18:34.822Z,5.88
2022-08-23T17:20:39.789Z,5.88
2022-08-23T17:22:43.191Z,6.75
2022-08-23T17:24:45.762Z,6.55
2022-08-23T17:26:50.347Z,6.60
2022-08-23T17:28:52.988Z,7.30
2022-08-23T17:30:55.742Z,7.97
2022-08-23T17:32:59.019Z,8.25
2022-08-23T17:35:02.236Z,7.15
2022-08-23T17:37:15.993Z,8.25
2022-08-23T17:39:23.329Z,12.52
2022-08-23T17:41:28.638Z,15.05
2022-08-23T17:43:50.033Z,10.55
2022-08-23T17:45:54.047Z,7.45
2022-08-23T17:47:59.306Z,8.60
2022-08-23T17:50:04.719Z,8.68
2022-08-23T17:52:09.426Z,7.88
2022-08-23T17:54:16.794Z,8.23
2022-08-23T17:56:20.610Z,7.80
2022-08-23T17:58:23.754Z,7.30
2022-08-23T18:00:29.223Z,8.55
2022-08-23T18:02:32.313Z,7.93
2022-08-23T18:04:35.513Z,7.63
2022-08-23T18:06:38.454Z,8.13
2022-08-23T18:08:41.634Z,6.78
2022-08-23T18:10:44.378Z,6.28
2022-08-23T18:12:46.987Z,7.47
2022-08-23T18:14:50.961Z,7.75
2022-08-23T18:16:54.635Z,6.45
2022-08-23T18:18:58.360Z,7.25
2022-08-23T18:21:06.601Z,7.97
2022-08-23T18:23:09.322Z,6.63
2022-08-23T18:25:14.346Z,7.18
2022-08-23T18:27:35.694Z,7.40
2022-08-23T18:29:39.339Z,7.15
2022-08-23T18:31:44.147Z,7.55
2022-08-23T18:33:47.453Z,7.68
2022-08-23T18:35:51.677Z,8.45
2022-08-23T18:37:54.690Z,6.95
2022-08-23T18:40:16.071Z,7.00
2022-08-23T18:42:20.926Z,6.85
2022-08-23T18:44:23.640Z,7.43
2022-08-23T18:46:31.731Z,6.57
2022-08-23T18:48:36.793Z,6.25
2022-08-23T18:50:41.713Z,6.30
2022-08-23T18:52:44.670Z,6.15
2022-08-23T18:54:47.278Z,6.97
2022-08-23T18:56:49.821Z,6.90
2022-08-23T18:58:53.114Z,7.10
2022-08-23T19:00:56.372Z,6.22
2022-08-23T19:02:59.555Z,6.22
2022-08-23T19:05:03.827Z,5.63
2022-08-23T19:07:06.448Z,6.93
2022-08-23T19:09:11.381Z,7.03
2022-08-23T19:11:16.177Z,6.45
2022-08-23T19:13:18.747Z,5.68
2022-08-23T19:15:22.241Z,6.30
2022-08-23T19:17:24.986Z,6.85
2022-08-23T19:19:27.848Z,6.35
2022-08-23T19:21:31.035Z,6.88
2022-08-23T19:23:34.794Z,7.47
2022-08-23T19:25:38.731Z,6.35
2022-08-23T19:27:41.450Z,7.25
2022-08-23T19:29:44.319Z,7.32
2022-08-23T19:31:48.444Z,7.65
2022-08-23T19:33:51.634Z,7.72
2022-08-23T19:35:55.413Z,7.50
2022-08-23T19:38:01.339Z,6.60
2022-08-23T19:40:05.414Z,7.85
2022-08-23T19:42:11.923Z,7.35
2022-08-23T19:44:15.525Z,6.18
2022-08-23T19:46:20.461Z,6.80
2022-08-23T19:48:23.873Z,6.95
2022-08-23T19:50:27.709Z,6.07
2022-08-23T19:52:30.229Z,6.38
2022-08-23T19:54:33.205Z,5.80
2022-08-23T19:56:43.433Z,5.88
2022-08-23T19:58:47.353Z,6.30
2022-08-23T20:00:50.171Z,6.72
2022-08-23T20:02:53.257Z,6.45
2022-08-23T20:04:56.691Z,6.75
2022-08-23T20:07:01.324Z,6.03
2022-08-23T20:09:06.218Z,5.25
2022-08-23T20:11:10.502Z,5.93
2022-08-23T20:13:14.308Z,5.63
2022-08-23T20:15:17.057Z,6.20
2022-08-23T20:17:19.804Z,6.13
2022-08-23T20:19:22.609Z,6.20
2022-08-23T20:21:26.240Z,5.97
2022-08-23T20:23:47.850Z,6.88
2022-08-23T20:25:50.649Z,5.75
2022-08-23T20:27:53.222Z,5.82
2022-08-23T20:29:55.796Z,6.70
2022-08-23T20:32:06.468Z,5.68
2022-08-23T20:34:09.345Z,7.43
2022-08-23T20:36:12.690Z,6.22
2022-08-23T20:38:32.862Z,6.95
2022-08-23T20:42:39.101Z,7.30
2022-08-23T20:44:42.326Z,7.68
2022-08-23T20:46:45.075Z,8.05
2022-08-23T20:48:48.169Z,7.57
2022-08-23T20:50:50.887Z,7.13
2022-08-23T20:52:54.159Z,7.32
2022-08-23T20:54:56.817Z,8.20
2022-08-23T20:56:59.474Z,8.10
2022-08-23T20:59:05.215Z,8.10
2022-08-23T21:01:09.360Z,8.18
2022-08-23T21:03:14.313Z,8.63
2022-08-23T21:05:17.178Z,9.27
2022-08-23T21:07:19.799Z,7.80
2022-08-23T21:09:29.537Z,7.70
2022-08-23T21:11:32.443Z,8.32
2022-08-23T21:13:35.260Z,8.05
2022-08-23T21:15:37.856Z,8.90
2022-08-23T21:17:40.800Z,9.30
2022-08-23T21:19:44.387Z,8.45
2022-08-23T21:21:47.000Z,8.20
2022-08-23T21:23:50.549Z,8.02
2022-08-23T21:25:57.444Z,9.00
2022-08-23T21:28:04.101Z,9.43
2022-08-23T21:30:08.971Z,8.40
2022-08-23T21:32:11.747Z,8.98
2022-08-23T21:34:14.444Z,8.40
2022-08-23T21:36:19.462Z,9.00
2022-08-23T21:38:22.246Z,9.60
2022-08-23T21:40:25.367Z,8.75
2022-08-23T21:42:27.920Z,8.95
2022-08-23T21:44:30.500Z,8.88
2022-08-23T21:46:34.269Z,7.97
2022-08-23T21:48:36.943Z,9.18
2022-08-23T21:50:39.473Z,8.90
2022-08-23T21:52:42.223Z,9.88
2022-08-23T21:54:44.798Z,9.52
2022-08-23T21:56:47.853Z,9.13
2022-08-23T21:58:50.846Z,9.93
2022-08-23T22:00:53.494Z,9.68
2022-08-23T22:02:56.135Z,8.93
2022-08-23T22:04:58.906Z,9.60
2022-08-23T22:07:01.481Z,9.68
2022-08-23T22:09:06.933Z,9.63
2022-08-23T22:11:10.447Z,9.88
2022-08-23T22:13:13.572Z,8.68
2022-08-23T22:15:17.610Z,9.15
2022-08-23T22:17:20.699Z,7.65
2022-08-23T22:19:23.350Z,7.90
2022-08-23T22:21:25.952Z,9.98
2022-08-23T22:23:30.442Z,9.02
2022-08-23T22:25:33.383Z,8.80
2022-08-23T22:27:36.509Z,8.43
2022-08-23T22:29:39.915Z,8.98
2022-08-23T22:31:48.079Z,9.75
2022-08-23T22:33:51.047Z,9.50
2022-08-23T22:35:53.997Z,10.57
2022-08-23T22:38:13.225Z,8.82
2022-08-23T22:40:18.954Z,10.63
2022-08-23T22:42:21.810Z,8.80
2022-08-23T22:44:24.530Z,8.77
2022-08-23T22:46:30.310Z,8.38
2022-08-23T22:48:35.268Z,9.35
2022-08-23T22:50:37.936Z,9.77
2022-08-23T22:52:40.606Z,8.52
2022-08-23T22:54:43.686Z,9.05
2022-08-23T22:56:50.114Z,9.27
2022-08-23T22:58:53.861Z,8.52
2022-08-23T23:00:56.529Z,10.27
2022-08-23T23:02:59.730Z,9.70
2022-08-23T23:05:02.481Z,9.13
2022-08-23T23:07:06.070Z,10.75
2022-08-23T23:09:10.117Z,9.75
2022-08-23T23:11:14.276Z,9.32
2022-08-23T23:13:17.000Z,9.80
2022-08-23T23:15:19.969Z,9.55
2022-08-23T23:17:22.564Z,9.25
2022-08-23T23:19:45.781Z,10.45
2022-08-23T23:21:52.513Z,9.77
2022-08-23T23:23:55.418Z,10.68
2022-08-23T23:25:58.782Z,9.57
2022-08-23T23:28:02.814Z,10.57
2022-08-23T23:30:05.894Z,10.80
2022-08-23T23:32:08.550Z,10.55
2022-08-23T23:34:11.430Z,10.75
2022-08-23T23:36:16.514Z,10.93
2022-08-23T23:38:20.318Z,10.98
2022-08-23T23:40:24.892Z,10.30
2022-08-23T23:42:27.523Z,9.90
2022-08-23T23:44:30.923Z,9.60
2022-08-23T23:46:35.391Z,10.10
2022-08-23T23:48:39.388Z,11.10
2022-08-23T23:50:46.631Z,11.82
2022-08-23T23:52:49.746Z,12.73
2022-08-23T23:54:52.307Z,12.55
2022-08-23T23:56:55.681Z,12.18
2022-08-23T23:58:59.486Z,12.38
